createdAt,value
2017-05-14T00:01:48.642Z,16.82
2017-05-14T00:04:16.920Z,17.33
2017-05-14T00:06:45.150Z,16.63
2017-05-14T00:09:13.469Z,18.10
2017-05-14T00:11:41.716Z,18.85
2017-05-14T00:14:09.969Z,19.00
2017-05-14T00:16:38.228Z,18.54
2017-05-14T00:19:06.479Z,19.08
2017-05-14T00:21:34.738Z,18.72
2017-05-14T00:24:03.751Z,18.60
2017-05-14T00:26:31.984Z,20.70
2017-05-14T00:29:00.988Z,19.83
2017-05-14T00:31:30.000Z,21.38
2017-05-14T00:33:58.227Z,22.13
2017-05-14T00:36:26.472Z,22.58
2017-05-14T00:38:54.709Z,22.85
2017-05-14T00:41:23.716Z,22.88
2017-05-14T00:43:52.014Z,22.72
2017-05-14T00:46:20.243Z,24.02
2017-05-14T00:48:49.262Z,21.75
2017-05-14T00:51:17.534Z,24.88
2017-05-14T00:53:45.856Z,23.43
2017-05-14T00:56:14.179Z,24.80
2017-05-14T00:58:43.165Z,23.67
2017-05-14T01:01:11.440Z,23.17
2017-05-14T01:03:40.436Z,24.33
2017-05-14T01:06:08.696Z,25.15
2017-05-14T01:08:37.667Z,25.04
2017-05-14T01:11:05.976Z,26.75
2017-05-14T01:13:34.971Z,25.85
2017-05-14T01:16:03.244Z,23.82
2017-05-14T01:18:32.277Z,24.13
2017-05-14T01:21:00.495Z,22.00
2017-05-14T01:23:29.472Z,24.40
2017-05-14T01:25:57.728Z,23.87
2017-05-14T01:28:26.066Z,24.78
2017-05-14T01:30:54.323Z,24.92
2017-05-14T01:33:23.329Z,26.20
2017-05-14T01:35:51.580Z,25.36
2017-05-14T01:38:19.876Z,26.33
2017-05-14T01:40:48.144Z,28.87
2017-05-14T01:43:16.433Z,28.32
2017-05-14T01:45:44.677Z,28.63
2017-05-14T01:48:12.908Z,30.00
2017-05-14T01:50:41.161Z,30.07
2017-05-14T01:53:09.399Z,29.16
2017-05-14T01:55:37.652Z,27.43
2017-05-14T01:58:05.968Z,31.75
2017-05-14T02:00:34.956Z,32.00
2017-05-14T02:03:03.956Z,31.52
2017-05-14T02:05:32.938Z,29.35
2017-05-14T02:08:02.043Z,28.08
2017-05-14T02:10:30.288Z,29.47
2017-05-14T02:12:58.521Z,28.90
2017-05-14T02:15:26.759Z,28.55
2017-05-14T02:17:55.733Z,25.52
2017-05-14T02:20:23.994Z,28.62
2017-05-14T02:22:52.309Z,29.63
2017-05-14T02:25:21.304Z,31.28
2017-05-14T02:27:50.320Z,29.98
2017-05-14T02:30:18.568Z,29.83
2017-05-14T02:32:47.593Z,25.80
2017-05-14T02:35:15.817Z,28.50
2017-05-14T02:37:44.111Z,29.00
2017-05-14T02:40:12.388Z,26.93
2017-05-14T02:42:41.377Z,29.93
2017-05-14T02:45:10.384Z,31.98
2017-05-14T02:47:38.617Z,31.90
2017-05-14T02:50:06.862Z,30.73
2017-05-14T02:52:35.205Z,30.82
2017-05-14T02:55:03.478Z,30.88
2017-05-14T02:57:32.468Z,31.60
2017-05-14T03:00:01.439Z,29.15
2017-05-14T03:02:29.660Z,31.40
2017-05-14T03:04:57.924Z,30.40
2017-05-14T03:07:26.157Z,30.38
2017-05-14T03:09:54.473Z,30.45
2017-05-14T03:12:22.744Z,27.34
2017-05-14T03:14:51.017Z,33.30
2017-05-14T03:17:19.292Z,32.48
2017-05-14T03:19:47.524Z,37.35
2017-05-14T03:22:15.752Z,39.00
2017-05-14T03:24:43.983Z,36.58
2017-05-14T03:27:12.236Z,36.83
2017-05-14T03:29:40.548Z,37.60
2017-05-14T03:32:09.559Z,37.15
2017-05-14T03:34:37.121Z,39.30
2017-05-14T03:37:05.367Z,38.70
2017-05-14T03:39:33.669Z,37.80
2017-05-14T03:42:01.919Z,37.45
2017-05-14T03:44:30.892Z,36.43
2017-05-14T03:46:59.120Z,34.66
2017-05-14T03:49:27.383Z,36.97
2017-05-14T03:51:55.620Z,38.27
2017-05-14T03:54:23.876Z,35.37
2017-05-14T03:56:52.199Z,34.95
2017-05-14T03:59:21.180Z,33.28
2017-05-14T04:01:50.162Z,33.60
2017-05-14T04:04:18.394Z,34.03
2017-05-14T04:06:46.732Z,33.66
2017-05-14T04:09:15.018Z,31.97
2017-05-14T04:11:43.284Z,31.12
2017-05-14T04:14:12.285Z,32.53
2017-05-14T04:16:40.558Z,30.72
2017-05-14T04:19:08.818Z,30.20
2017-05-14T04:21:37.789Z,29.75
2017-05-14T04:24:06.050Z,28.82
2017-05-14T04:26:34.372Z,26.40
2017-05-14T04:29:03.344Z,28.57
2017-05-14T04:31:31.640Z,27.03
2017-05-14T04:34:00.612Z,26.40
2017-05-14T04:36:28.888Z,25.97
2017-05-14T04:38:57.130Z,25.55
2017-05-14T04:41:25.360Z,26.33
2017-05-14T04:43:53.618Z,28.30
2017-05-14T04:46:22.631Z,27.07
2017-05-14T04:48:50.867Z,28.00
2017-05-14T04:51:19.107Z,27.60
2017-05-14T04:53:47.348Z,27.45
2017-05-14T04:56:16.442Z,28.62
2017-05-14T04:58:45.418Z,26.63
2017-05-14T05:01:13.649Z,26.93
2017-05-14T05:03:41.893Z,29.03
2017-05-14T05:06:10.120Z,29.90
2017-05-14T05:08:38.436Z,29.40
2017-05-14T05:11:06.672Z,27.86
2017-05-14T05:13:34.916Z,29.38
2017-05-14T05:16:03.259Z,27.78
2017-05-14T05:18:32.245Z,28.58
2017-05-14T05:21:01.271Z,28.12
2017-05-14T05:23:29.520Z,29.07
2017-05-14T05:25:57.745Z,28.40
2017-05-14T05:28:26.084Z,28.95
2017-05-14T05:30:54.319Z,30.07
2017-05-14T05:33:22.583Z,28.80
2017-05-14T05:35:50.808Z,29.17
2017-05-14T05:38:19.036Z,28.60
2017-05-14T05:40:47.275Z,29.98
2017-05-14T05:43:15.531Z,30.48
2017-05-14T05:45:43.899Z,30.05
2017-05-14T05:48:12.128Z,30.40
2017-05-14T05:50:40.366Z,31.30
2017-05-14T05:53:08.622Z,34.23
2017-05-14T05:55:37.600Z,33.40
2017-05-14T05:58:06.602Z,31.74
2017-05-14T06:00:35.627Z,32.30
2017-05-14T06:03:03.879Z,32.23
2017-05-14T06:05:32.145Z,32.30
2017-05-14T06:08:01.132Z,32.95
2017-05-14T06:10:30.134Z,31.28
2017-05-14T06:12:59.328Z,31.50
2017-05-14T06:15:28.326Z,31.23
2017-05-14T06:17:56.568Z,28.80
2017-05-14T06:20:24.799Z,28.88
2017-05-14T06:22:53.145Z,29.90
2017-05-14T06:25:22.119Z,27.28
2017-05-14T06:27:51.083Z,27.28
2017-05-14T06:30:19.435Z,25.37
2017-05-14T06:32:47.656Z,25.90
2017-05-14T06:35:15.904Z,25.78
2017-05-14T06:37:44.238Z,25.77
2017-05-14T06:40:12.567Z,24.25
2017-05-14T06:42:40.880Z,23.24
2017-05-14T06:45:09.867Z,23.03
2017-05-14T06:47:38.874Z,21.50
2017-05-14T06:50:07.150Z,21.03
2017-05-14T06:52:35.402Z,19.18
2017-05-14T06:55:04.376Z,19.65
2017-05-14T06:57:32.624Z,17.55
2017-05-14T07:00:00.853Z,17.10
2017-05-14T07:02:29.844Z,17.97
2017-05-14T07:04:58.840Z,17.28
2017-05-14T07:07:27.824Z,16.70
2017-05-14T07:09:56.819Z,16.30
2017-05-14T07:12:25.804Z,15.70
2017-05-14T07:14:54.095Z,15.45
2017-05-14T07:17:23.066Z,14.72
2017-05-14T07:19:51.313Z,14.07
2017-05-14T07:22:19.621Z,13.30
2017-05-14T07:24:48.036Z,14.60
2017-05-14T07:27:16.272Z,14.54
2017-05-14T07:29:44.719Z,13.33
2017-05-14T07:32:13.040Z,13.75
2017-05-14T07:34:42.056Z,13.95
2017-05-14T07:37:10.312Z,12.64
2017-05-14T07:39:39.308Z,12.25
2017-05-14T07:42:08.320Z,12.95
2017-05-14T07:44:36.581Z,11.90
2017-05-14T07:47:04.828Z,11.90
2017-05-14T07:49:33.132Z,10.50
2017-05-14T07:52:01.411Z,11.00
2017-05-14T07:54:29.676Z,9.30
2017-05-14T07:56:58.692Z,8.72
2017-05-14T07:59:26.921Z,10.05
2017-05-14T08:01:55.227Z,10.10
2017-05-14T08:04:23.488Z,9.37
2017-05-14T08:06:52.459Z,9.80
2017-05-14T08:09:20.710Z,8.50
2017-05-14T08:11:49.036Z,7.70
2017-05-14T08:14:18.040Z,6.85
2017-05-14T08:16:46.308Z,6.93
2017-05-14T08:19:14.533Z,6.80
2017-05-14T08:21:42.864Z,6.72
2017-05-14T08:24:11.145Z,5.82
2017-05-14T08:26:40.164Z,5.92
2017-05-14T08:29:08.396Z,5.63
2017-05-14T08:31:37.456Z,5.27
2017-05-14T08:34:05.897Z,4.17
2017-05-14T08:36:34.134Z,4.30
2017-05-14T08:39:03.120Z,4.55
2017-05-14T08:41:31.361Z,5.40
2017-05-14T08:43:59.584Z,5.20
2017-05-14T08:46:28.568Z,5.97
2017-05-14T08:48:57.592Z,6.10
2017-05-14T08:51:25.829Z,6.58
2017-05-14T08:53:54.793Z,4.82
2017-05-14T08:56:23.056Z,4.32
2017-05-14T08:58:51.335Z,4.78
2017-05-14T09:01:19.668Z,4.15
2017-05-14T09:03:47.936Z,4.12
2017-05-14T09:06:16.964Z,4.08
2017-05-14T09:08:45.201Z,4.43
2017-05-14T09:11:14.194Z,4.74
2017-05-14T09:13:43.164Z,4.67
2017-05-14T09:16:11.410Z,5.03
2017-05-14T09:18:39.744Z,5.38
2017-05-14T09:21:07.971Z,5.28
2017-05-14T09:23:36.440Z,5.40
2017-05-14T09:26:04.713Z,5.05
2017-05-14T09:28:32.983Z,5.17
2017-05-14T09:31:01.348Z,5.22
2017-05-14T09:33:29.597Z,4.85
2017-05-14T09:35:58.560Z,5.28
2017-05-14T09:38:26.797Z,4.03
2017-05-14T09:40:55.016Z,3.62
2017-05-14T09:43:23.313Z,3.90
2017-05-14T09:45:52.312Z,4.00
2017-05-14T09:48:20.636Z,4.33
2017-05-14T09:50:48.863Z,4.10
2017-05-14T09:53:17.180Z,3.50
2017-05-14T09:55:45.436Z,4.15
2017-05-14T09:58:13.674Z,4.37
2017-05-14T10:00:42.671Z,3.78
2017-05-14T10:03:11.635Z,3.77
2017-05-14T10:05:39.950Z,3.90
2017-05-14T10:08:08.366Z,3.85
2017-05-14T10:10:36.745Z,3.63
2017-05-14T10:13:05.024Z,3.90
2017-05-14T10:15:33.259Z,4.13
2017-05-14T10:18:01.520Z,4.02
2017-05-14T10:20:29.769Z,3.30
2017-05-14T10:22:57.996Z,3.20
2017-05-14T10:25:26.219Z,3.58
2017-05-14T10:27:54.516Z,3.90
2017-05-14T10:30:23.521Z,3.70
2017-05-14T10:32:52.504Z,3.60
2017-05-14T10:35:21.476Z,3.65
2017-05-14T10:37:49.776Z,3.80
2017-05-14T10:40:18.024Z,3.93
2017-05-14T10:42:46.243Z,3.77
2017-05-14T10:45:14.500Z,3.48
2017-05-14T10:47:43.498Z,4.08
2017-05-14T10:50:11.811Z,4.10
2017-05-14T10:52:40.144Z,4.10
2017-05-14T10:55:09.136Z,4.20
2017-05-14T10:57:38.173Z,3.72
2017-05-14T11:00:06.449Z,4.20
2017-05-14T11:02:34.726Z,4.05
2017-05-14T11:05:02.970Z,5.78
2017-05-14T11:07:31.193Z,3.66
2017-05-14T11:09:59.448Z,3.47
2017-05-14T11:12:27.679Z,3.58
2017-05-14T11:14:56.675Z,3.24
2017-05-14T11:17:25.765Z,3.57
2017-05-14T11:19:54.085Z,3.20
2017-05-14T11:22:22.367Z,3.50
2017-05-14T11:24:50.738Z,3.62
2017-05-14T11:27:18.955Z,3.60
2017-05-14T11:29:47.945Z,3.40
2017-05-14T11:32:16.925Z,3.23
2017-05-14T11:34:45.190Z,3.60
2017-05-14T11:37:13.416Z,3.60
2017-05-14T11:39:41.643Z,3.58
2017-05-14T11:42:09.949Z,3.60
2017-05-14T11:44:38.861Z,3.75
2017-05-14T11:47:07.099Z,4.12
2017-05-14T11:49:35.387Z,3.76
2017-05-14T11:52:04.349Z,3.60
2017-05-14T11:54:32.660Z,3.67
2017-05-14T11:57:01.630Z,3.70
2017-05-14T11:59:29.854Z,3.82
2017-05-14T12:01:58.252Z,3.72
2017-05-14T12:04:26.476Z,3.80
2017-05-14T12:06:55.443Z,3.40
2017-05-14T12:09:23.752Z,3.90
2017-05-14T12:11:51.984Z,3.80
2017-05-14T12:14:20.201Z,4.20
2017-05-14T12:16:48.492Z,4.07
2017-05-14T12:19:16.769Z,3.72
2017-05-14T12:21:45.068Z,3.58
2017-05-14T12:24:13.340Z,4.00
2017-05-14T12:26:41.603Z,3.85
2017-05-14T12:29:09.820Z,4.00
2017-05-14T12:31:38.101Z,3.82
2017-05-14T12:34:06.444Z,3.83
2017-05-14T12:36:34.772Z,4.18
2017-05-14T12:39:03.032Z,3.82
2017-05-14T12:41:31.256Z,3.98
2017-05-14T12:43:59.501Z,3.90
2017-05-14T12:46:28.525Z,4.33
2017-05-14T12:48:56.776Z,3.90
2017-05-14T12:51:25.005Z,3.98
2017-05-14T12:53:53.337Z,4.10
2017-05-14T12:56:21.579Z,3.40
2017-05-14T12:58:49.859Z,4.30
2017-05-14T13:01:18.969Z,4.30
2017-05-14T13:03:47.252Z,4.63
2017-05-14T13:06:15.482Z,4.10
2017-05-14T13:08:43.784Z,4.04
2017-05-14T13:11:12.763Z,4.47
2017-05-14T13:13:41.004Z,4.22
2017-05-14T13:16:09.264Z,5.00
2017-05-14T13:18:37.496Z,4.26
2017-05-14T13:21:06.496Z,4.05
2017-05-14T13:23:35.481Z,4.35
2017-05-14T13:26:04.444Z,4.20
2017-05-14T13:28:32.864Z,4.60
2017-05-14T13:31:01.134Z,4.10
2017-05-14T13:33:30.145Z,4.38
2017-05-14T13:35:58.376Z,4.30
2017-05-14T13:38:26.636Z,4.88
2017-05-14T13:40:54.868Z,4.40
2017-05-14T13:43:23.108Z,5.10
2017-05-14T13:45:51.373Z,5.03
2017-05-14T13:48:19.592Z,4.68
2017-05-14T13:50:47.815Z,5.13
2017-05-14T13:53:16.098Z,4.75
2017-05-14T13:55:44.328Z,4.87
2017-05-14T13:58:12.560Z,5.17
2017-05-14T14:00:41.555Z,5.28
2017-05-14T14:03:09.784Z,4.70
2017-05-14T14:05:38.011Z,5.13
2017-05-14T14:08:07.047Z,6.18
2017-05-14T14:10:35.280Z,5.55
2017-05-14T14:13:04.379Z,5.68
2017-05-14T14:15:32.602Z,4.87
2017-05-14T14:18:00.928Z,5.50
2017-05-14T14:20:29.179Z,4.80
2017-05-14T14:22:57.400Z,4.67
2017-05-14T14:25:25.752Z,5.04
2017-05-14T14:27:53.979Z,5.52
2017-05-14T14:30:22.211Z,4.90
2017-05-14T14:32:50.442Z,5.10
2017-05-14T14:35:18.722Z,4.73
2017-05-14T14:37:46.959Z,5.38
2017-05-14T14:40:15.204Z,5.17
2017-05-14T14:42:43.428Z,5.90
2017-05-14T14:45:11.680Z,6.33
2017-05-14T14:47:40.070Z,4.83
2017-05-14T14:50:08.403Z,6.20
2017-05-14T14:52:37.374Z,5.45
2017-05-14T14:55:05.671Z,4.72
2017-05-14T14:57:33.972Z,4.87
2017-05-14T15:00:02.223Z,5.10
2017-05-14T15:02:31.216Z,5.44
2017-05-14T15:04:59.449Z,5.26
2017-05-14T15:07:27.765Z,4.82
2017-05-14T15:09:56.772Z,4.43
2017-05-14T15:12:25.013Z,4.48
2017-05-14T15:14:53.248Z,5.27
2017-05-14T15:17:21.475Z,4.88
2017-05-14T15:19:50.477Z,4.88
2017-05-14T15:22:18.754Z,5.13
2017-05-14T15:24:46.994Z,4.48
2017-05-14T15:27:15.220Z,4.76
2017-05-14T15:29:43.467Z,4.60
2017-05-14T15:32:12.486Z,4.40
2017-05-14T15:34:40.732Z,5.30
2017-05-14T15:37:09.007Z,9.15
2017-05-14T15:39:37.983Z,4.12
2017-05-14T15:42:06.254Z,4.85
2017-05-14T15:44:34.579Z,4.40
2017-05-14T15:47:02.856Z,4.83
2017-05-14T15:49:31.092Z,4.88
2017-05-14T15:52:00.066Z,4.84
2017-05-14T15:54:28.303Z,4.40
2017-05-14T15:56:56.530Z,5.34
2017-05-14T15:59:25.523Z,4.78
2017-05-14T16:01:54.577Z,4.67
2017-05-14T16:04:22.829Z,4.70
2017-05-14T16:06:51.073Z,4.60
2017-05-14T16:09:20.088Z,5.42
2017-05-14T16:11:48.450Z,4.87
2017-05-14T16:14:16.664Z,6.00
2017-05-14T16:16:44.928Z,4.70
2017-05-14T16:19:13.168Z,5.10
2017-05-14T16:21:42.135Z,4.98
2017-05-14T16:24:10.388Z,4.50
2017-05-14T16:26:38.747Z,4.54
2017-05-14T16:29:07.373Z,4.50
2017-05-14T16:31:35.603Z,4.37
2017-05-14T16:34:03.852Z,4.30
2017-05-14T16:36:32.174Z,4.50
2017-05-14T16:39:00.525Z,4.30
2017-05-14T16:41:28.770Z,4.40
2017-05-14T16:43:57.747Z,4.67
2017-05-14T16:46:25.969Z,4.75
2017-05-14T16:48:54.240Z,4.18
2017-05-14T16:51:22.477Z,4.03
2017-05-14T16:53:50.730Z,4.33
2017-05-14T16:56:18.981Z,4.00
2017-05-14T16:58:47.296Z,4.53
2017-05-14T17:01:15.547Z,4.45
2017-05-14T17:03:43.893Z,4.30
2017-05-14T17:06:12.131Z,4.30
2017-05-14T17:08:40.428Z,4.18
2017-05-14T17:11:08.751Z,4.05
2017-05-14T17:13:37.000Z,4.30
2017-05-14T17:16:05.226Z,4.27
2017-05-14T17:18:33.472Z,4.54
2017-05-14T17:21:01.697Z,4.97
2017-05-14T17:23:30.667Z,3.93
2017-05-14T17:25:59.051Z,3.95
2017-05-14T17:28:28.069Z,4.12
2017-05-14T17:30:56.548Z,4.37
2017-05-14T17:33:24.772Z,4.90
2017-05-14T17:35:53.003Z,4.40
2017-05-14T17:38:21.282Z,5.50
2017-05-14T17:40:49.523Z,4.45
2017-05-14T17:43:17.813Z,4.53
2017-05-14T17:45:46.800Z,4.53
2017-05-14T17:48:15.770Z,4.68
2017-05-14T17:50:44.080Z,5.20
2017-05-14T17:53:12.313Z,5.10
2017-05-14T17:55:40.579Z,4.25
2017-05-14T17:58:08.944Z,4.83
2017-05-14T18:00:37.278Z,5.33
2017-05-14T18:03:06.371Z,5.30
2017-05-14T18:05:35.447Z,6.27
2017-05-14T18:08:03.716Z,5.55
2017-05-14T18:10:31.973Z,5.27
2017-05-14T18:13:00.212Z,5.20
2017-05-14T18:15:28.460Z,5.62
2017-05-14T18:17:57.440Z,5.90
2017-05-14T18:20:25.687Z,6.67
2017-05-14T18:22:54.008Z,7.87
2017-05-14T18:25:22.260Z,7.52
2017-05-14T18:27:50.568Z,7.12
2017-05-14T18:30:18.860Z,7.92
2017-05-14T18:32:47.259Z,8.18
2017-05-14T18:35:15.600Z,9.62
2017-05-14T18:37:43.863Z,9.68
2017-05-14T18:40:12.205Z,10.45
2017-05-14T18:42:40.626Z,11.30
2017-05-14T18:45:08.901Z,11.58
2017-05-14T18:47:37.176Z,12.22
2017-05-14T18:50:05.551Z,13.10
2017-05-14T18:52:33.787Z,14.23
2017-05-14T18:55:02.226Z,13.73
2017-05-14T18:57:30.476Z,13.10
2017-05-14T18:59:59.482Z,13.93
2017-05-14T19:02:27.748Z,13.70
2017-05-14T19:04:56.019Z,13.65
2017-05-14T19:07:25.120Z,14.20
2017-05-14T19:09:53.439Z,14.08
2017-05-14T19:12:21.663Z,14.10
2017-05-14T19:14:50.653Z,13.82
2017-05-14T19:17:19.652Z,14.65
2017-05-14T19:19:47.957Z,17.32
2017-05-14T19:22:16.324Z,17.22
2017-05-14T19:24:44.691Z,19.86
2017-05-14T19:27:12.973Z,21.32
2017-05-14T19:29:41.284Z,20.62
2017-05-14T19:32:09.521Z,19.77
2017-05-14T19:34:37.792Z,18.68
2017-05-14T19:37:06.059Z,15.77
2017-05-14T19:39:35.081Z,15.53
2017-05-14T19:42:03.332Z,17.17
2017-05-14T19:44:31.716Z,17.70
2017-05-14T19:46:59.988Z,18.68
2017-05-14T19:49:28.303Z,20.44
2017-05-14T19:51:56.647Z,20.53
2017-05-14T19:54:24.896Z,26.13
2017-05-14T19:56:53.870Z,22.55
2017-05-14T19:59:22.205Z,21.45
2017-05-14T20:01:50.461Z,20.30
2017-05-14T20:04:18.688Z,17.15
2017-05-14T20:06:46.966Z,14.53
2017-05-14T20:09:15.192Z,17.53
2017-05-14T20:11:43.667Z,14.07
2017-05-14T20:14:11.926Z,17.28
2017-05-14T20:16:41.025Z,18.07
2017-05-14T20:19:09.258Z,20.03
2017-05-14T20:21:37.522Z,20.13
2017-05-14T20:24:05.895Z,15.65
2017-05-14T20:26:34.291Z,16.27
2017-05-14T20:29:02.546Z,16.52
2017-05-14T20:31:30.780Z,17.75
2017-05-14T20:33:59.768Z,17.92
2017-05-14T20:36:28.883Z,19.63
2017-05-14T20:38:57.252Z,18.42
2017-05-14T20:41:25.476Z,16.03
2017-05-14T20:43:53.813Z,17.37
2017-05-14T20:46:22.047Z,18.73
2017-05-14T20:48:50.313Z,19.33
2017-05-14T20:51:18.615Z,17.33
2017-05-14T20:53:46.844Z,15.47
2017-05-14T20:56:15.076Z,17.68
2017-05-14T20:58:43.342Z,18.44
2017-05-14T21:01:12.313Z,11.72
2017-05-14T21:03:40.565Z,15.33
2017-05-14T21:06:08.888Z,13.65
2017-05-14T21:08:37.208Z,14.10
2017-05-14T21:11:05.445Z,13.77
2017-05-14T21:13:33.704Z,21.12
2017-05-14T21:16:02.708Z,17.27
2017-05-14T21:18:31.697Z,15.17
2017-05-14T21:21:00.798Z,14.33
2017-05-14T21:23:29.032Z,14.70
2017-05-14T21:25:57.260Z,14.00
2017-05-14T21:28:25.526Z,15.77
2017-05-14T21:30:53.795Z,15.83
2017-05-14T21:33:22.024Z,16.02
2017-05-14T21:35:50.306Z,16.08
2017-05-14T21:38:18.628Z,17.27
2017-05-14T21:40:46.848Z,17.15
2017-05-14T21:43:15.141Z,17.67
2017-05-14T21:45:43.376Z,17.30
2017-05-14T21:48:11.607Z,16.57
2017-05-14T21:50:40.603Z,18.77
2017-05-14T21:53:09.614Z,17.23
2017-05-14T21:55:37.886Z,17.50
2017-05-14T21:58:06.151Z,17.62
2017-05-14T22:00:35.144Z,16.00
2017-05-14T22:03:03.384Z,13.00
2017-05-14T22:05:31.632Z,13.17
2017-05-14T22:07:59.885Z,12.65
2017-05-14T22:10:28.147Z,12.55
2017-05-14T22:12:56.403Z,12.33
2017-05-14T22:15:24.702Z,12.52
2017-05-14T22:17:52.928Z,11.97
2017-05-14T22:20:21.349Z,14.38
2017-05-14T22:22:49.576Z,14.15
2017-05-14T22:25:18.016Z,15.34
2017-05-14T22:27:46.381Z,17.18
2017-05-14T22:30:14.623Z,16.63
2017-05-14T22:32:42.847Z,17.05
2017-05-14T22:35:11.099Z,18.13
2017-05-14T22:37:39.324Z,17.62
2017-05-14T22:40:07.659Z,18.18
2017-05-14T22:42:36.440Z,19.42
2017-05-14T22:45:04.717Z,19.66
2017-05-14T22:47:33.711Z,21.63
2017-05-14T22:50:01.960Z,21.47
2017-05-14T22:52:30.256Z,23.27
2017-05-14T22:54:59.227Z,24.10
2017-05-14T22:57:27.484Z,25.77
2017-05-14T22:59:55.808Z,25.07
2017-05-14T23:02:24.039Z,25.42
2017-05-14T23:04:52.346Z,27.15
2017-05-14T23:07:21.313Z,26.93
2017-05-14T23:09:49.556Z,28.63
2017-05-14T23:12:17.832Z,29.12
2017-05-14T23:14:46.182Z,30.65
2017-05-14T23:17:14.400Z,29.68
2017-05-14T23:19:42.720Z,31.58
2017-05-14T23:22:11.690Z,32.10
2017-05-14T23:24:39.993Z,33.27
2017-05-14T23:27:08.244Z,31.35
2017-05-14T23:29:36.476Z,32.48
2017-05-14T23:32:04.819Z,34.60
2017-05-14T23:34:33.074Z,34.65
2017-05-14T23:37:01.360Z,35.02
2017-05-14T23:39:30.368Z,35.67
2017-05-14T23:41:58.741Z,35.82
2017-05-14T23:44:26.979Z,38.23
2017-05-14T23:46:55.388Z,37.87
2017-05-14T23:49:24.480Z,39.27
2017-05-14T23:51:53.478Z,37.55
2017-05-14T23:54:22.456Z,37.03
2017-05-14T23:56:51.468Z,38.62
2017-05-14T23:59:19.732Z,37.54
